Royal Oak Township, Michigan
Current Conditions -  °F | °C
As of 5:53 AM on Saturday 25 Oct 2014 (Local Time) from KDET Reporting Station
Haze Haze  
Wind Chill: 50°   Ceiling: 9500
Heat Index: 50°   Visibility: 4mi
Dew Point: 46°   Wind: 5mph
Humidity: 86%   Direction: 220°SW
Pressure: 29.87"   Gusts: NA
Location:  42.4581°N, 83.135°W
Report Text: KDET 250953Z 22004KT 4SM BR OVC095 10/08 A2987 RMK AO2 SLP114 T01000078
Loading
Personal Weather Stations






























Interactive Weather Map
Tropical Storm Tracking
New forecast layout! Learn more

10-Day Weather Forecast

Advertisements
Track Severe Weather on mobile